createdAt,value
2022-09-15T00:01:06.804Z,100776.19
2022-09-15T00:03:33.827Z,100771.97
2022-09-15T00:06:00.719Z,100775.97
2022-09-15T00:08:27.582Z,100777.50
2022-09-15T00:11:07.158Z,100767.63
2022-09-15T00:13:35.999Z,100773.50
2022-09-15T00:16:04.307Z,100763.16
2022-09-15T00:18:32.371Z,100771.66
2022-09-15T00:20:59.296Z,100773.06
2022-09-15T00:23:26.325Z,100770.25
2022-09-15T00:25:54.015Z,100778.28
2022-09-15T00:28:22.925Z,100781.44
2022-09-15T00:30:53.617Z,100775.91
2022-09-15T00:33:22.810Z,100776.63
2022-09-15T00:35:53.212Z,100779.31
2022-09-15T00:38:21.187Z,100771.66
2022-09-15T00:40:52.700Z,100772.72
2022-09-15T00:43:42.082Z,100775.66
2022-09-15T00:46:10.084Z,100764.25
2022-09-15T00:48:51.788Z,100777.44
2022-09-15T00:51:25.999Z,100780.97
2022-09-15T00:53:53.559Z,100774.97
2022-09-15T00:56:22.345Z,100780.13
2022-09-15T00:58:58.740Z,100777.44
2022-09-15T01:01:28.258Z,100776.25
2022-09-15T01:03:55.747Z,100781.66
2022-09-15T01:06:35.969Z,100783.78
2022-09-15T01:09:16.586Z,100782.34
2022-09-15T01:11:43.654Z,100775.50
2022-09-15T01:14:11.072Z,100772.19
2022-09-15T01:16:53.857Z,100776.44
2022-09-15T01:19:53.642Z,100780.66
2022-09-15T01:22:38.374Z,100769.38
2022-09-15T01:25:51.936Z,100778.91
2022-09-15T01:28:46.316Z,100784.31
2022-09-15T01:32:00.336Z,100791.25
2022-09-15T01:34:35.833Z,100791.03
2022-09-15T01:37:11.249Z,100793.13
2022-09-15T01:39:43.265Z,100789.69
2022-09-15T01:42:15.246Z,100789.25
2022-09-15T01:45:04.031Z,100790.53
2022-09-15T01:47:31.362Z,100796.03
2022-09-15T01:50:21.687Z,100803.19
2022-09-15T01:52:53.835Z,100798.00
2022-09-15T01:55:28.776Z,100792.59
2022-09-15T01:57:55.662Z,100800.09
2022-09-15T02:00:22.568Z,100795.75
2022-09-15T02:02:59.199Z,100792.09
2022-09-15T02:06:01.893Z,100792.31
2022-09-15T02:08:57.303Z,100784.44
2022-09-15T02:11:26.519Z,100788.06
2022-09-15T02:14:20.720Z,100783.25
2022-09-15T02:16:52.902Z,100789.72
2022-09-15T02:19:41.685Z,100791.22
2022-09-15T02:22:23.959Z,100780.41
2022-09-15T02:25:00.907Z,100783.94
2022-09-15T02:27:34.081Z,100786.88
2022-09-15T02:30:07.887Z,100788.97
2022-09-15T02:32:37.445Z,100790.16
2022-09-15T02:35:08.083Z,100800.53
2022-09-15T02:37:37.908Z,100801.34
2022-09-15T02:40:07.128Z,100800.44
2022-09-15T02:42:35.080Z,100798.09
2022-09-15T02:45:03.472Z,100800.72
2022-09-15T02:47:31.941Z,100808.34
2022-09-15T02:49:58.841Z,100800.59
2022-09-15T02:52:26.067Z,100799.31
2022-09-15T02:54:53.398Z,100799.31
2022-09-15T02:57:20.861Z,100798.63
2022-09-15T03:00:06.595Z,100793.81
2022-09-15T03:02:34.328Z,100799.00
2022-09-15T03:05:01.315Z,100802.06
2022-09-15T03:07:28.483Z,100793.72
2022-09-15T03:09:55.426Z,100795.38
2022-09-15T03:12:22.287Z,100796.78
2022-09-15T03:14:49.671Z,100801.09
2022-09-15T03:17:17.976Z,100794.66
2022-09-15T03:19:45.234Z,100796.06
2022-09-15T03:22:12.135Z,100797.72
2022-09-15T03:24:39.396Z,100803.13
2022-09-15T03:27:06.477Z,100806.41
2022-09-15T03:29:33.335Z,100799.50
2022-09-15T03:32:00.318Z,100808.88
2022-09-15T03:34:27.311Z,100803.03
2022-09-15T03:36:54.194Z,100810.06
2022-09-15T03:39:21.056Z,100815.50
2022-09-15T03:41:47.908Z,100809.25
2022-09-15T03:44:15.219Z,100813.38
2022-09-15T03:46:42.109Z,100811.97
2022-09-15T03:49:09.175Z,100818.19
2022-09-15T03:51:36.037Z,100814.66
2022-09-15T03:54:03.113Z,100817.13
2022-09-15T03:56:32.778Z,100821.50
2022-09-15T03:59:02.886Z,100817.97
2022-09-15T04:01:30.777Z,100823.38
2022-09-15T04:03:58.443Z,100821.72
2022-09-15T04:06:26.933Z,100827.53
2022-09-15T04:08:54.968Z,100829.19
2022-09-15T04:11:23.314Z,100810.84
2022-09-15T04:13:50.281Z,100809.53
2022-09-15T04:16:21.996Z,100816.13
2022-09-15T04:18:50.876Z,100818.25
2022-09-15T04:21:22.749Z,100819.66
2022-09-15T04:23:51.415Z,100815.53
2022-09-15T04:26:31.799Z,100812.38
2022-09-15T04:29:03.633Z,100817.56
2022-09-15T04:31:32.632Z,100819.44
2022-09-15T04:33:59.572Z,100814.84
2022-09-15T04:36:28.286Z,100822.72
2022-09-15T04:38:56.757Z,100820.03
2022-09-15T04:41:25.405Z,100815.66
2022-09-15T04:43:52.696Z,100812.97
2022-09-15T04:46:20.482Z,100811.09
2022-09-15T04:48:48.837Z,100815.66
2022-09-15T04:51:20.557Z,100818.97
2022-09-15T04:53:48.983Z,100814.38
2022-09-15T04:56:23.090Z,100809.78
2022-09-15T04:59:03.862Z,100806.50
2022-09-15T05:01:34.446Z,100807.31
2022-09-15T05:04:03.939Z,100811.91
2022-09-15T05:06:31.019Z,100804.84
2022-09-15T05:08:58.506Z,100808.59
2022-09-15T05:11:26.406Z,100815.91
2022-09-15T05:13:53.889Z,100815.66
2022-09-15T05:16:24.509Z,100810.50
2022-09-15T05:18:54.398Z,100814.03
2022-09-15T05:21:23.511Z,100819.44
2022-09-15T05:23:54.049Z,100817.78
2022-09-15T05:26:28.033Z,100819.44
2022-09-15T05:28:56.727Z,100818.38
2022-09-15T05:31:27.840Z,100820.25
2022-09-15T05:33:55.266Z,100819.44
2022-09-15T05:36:25.848Z,100818.59
2022-09-15T05:38:55.432Z,100821.53
2022-09-15T05:41:23.040Z,100820.84
2022-09-15T05:43:50.906Z,100821.53
2022-09-15T05:46:19.215Z,100825.31
2022-09-15T05:48:47.209Z,100825.31
2022-09-15T05:51:15.035Z,100828.84
2022-09-15T05:53:42.163Z,100831.31
2022-09-15T05:56:13.058Z,100828.59
2022-09-15T05:58:42.871Z,100826.13
2022-09-15T06:01:20.825Z,100837.31
2022-09-15T06:03:47.952Z,100826.03
2022-09-15T06:06:15.920Z,100825.56
2022-09-15T06:08:48.275Z,100827.81
2022-09-15T06:11:21.813Z,100830.88
2022-09-15T06:13:49.925Z,100831.22
2022-09-15T06:16:23.545Z,100837.22
2022-09-15T06:18:53.129Z,100842.75
2022-09-15T06:21:26.577Z,100836.03
2022-09-15T06:24:04.375Z,100840.75
2022-09-15T06:26:31.236Z,100848.97
2022-09-15T06:29:01.382Z,100850.88
2022-09-15T06:31:32.079Z,100850.75
2022-09-15T06:33:59.843Z,100851.09
2022-09-15T06:36:29.909Z,100854.16
2022-09-15T06:38:58.301Z,100861.81
2022-09-15T06:41:25.648Z,100855.47
2022-09-15T06:43:52.958Z,100862.88
2022-09-15T06:46:24.951Z,100862.88
2022-09-15T06:48:53.410Z,100865.34
2022-09-15T06:51:24.826Z,100877.38
2022-09-15T06:53:53.643Z,100878.63
2022-09-15T06:56:23.281Z,100878.75
2022-09-15T06:58:50.822Z,100877.31
2022-09-15T07:01:28.477Z,100875.06
2022-09-15T07:03:58.175Z,100883.44
2022-09-15T07:06:28.774Z,100881.78
2022-09-15T07:08:56.583Z,100894.47
2022-09-15T07:11:23.870Z,100898.44
2022-09-15T07:13:51.564Z,100891.56
2022-09-15T07:16:20.633Z,100905.25
2022-09-15T07:18:48.600Z,100902.75
2022-09-15T07:21:18.459Z,100906.88
2022-09-15T07:23:45.976Z,100911.66
2022-09-15T07:26:18.419Z,100923.06
2022-09-15T07:28:50.026Z,100922.97
2022-09-15T07:31:20.673Z,100924.38
2022-09-15T07:33:48.099Z,100932.84
2022-09-15T07:36:15.893Z,100926.34
2022-09-15T07:38:47.736Z,100927.66
2022-09-15T07:41:20.835Z,100920.56
2022-09-15T07:43:50.422Z,100924.19
2022-09-15T07:46:18.847Z,100928.16
2022-09-15T07:48:51.289Z,100919.28
2022-09-15T07:51:19.105Z,100921.25
2022-09-15T07:53:48.399Z,100921.09
2022-09-15T07:56:18.321Z,100923.34
2022-09-15T07:58:46.543Z,100925.56
2022-09-15T08:01:14.804Z,100927.22
2022-09-15T08:03:48.708Z,100941.03
2022-09-15T08:06:18.899Z,100938.09
2022-09-15T08:08:46.036Z,100941.50
2022-09-15T08:11:19.427Z,100941.91
2022-09-15T08:13:49.399Z,100944.72
2022-09-15T08:16:23.153Z,100950.16
2022-09-15T08:18:52.263Z,100948.09
2022-09-15T08:21:21.712Z,100951.47
2022-09-15T08:23:59.717Z,100954.28
2022-09-15T08:26:28.691Z,100969.28
2022-09-15T08:28:55.744Z,100964.16
2022-09-15T08:31:24.429Z,100972.41
2022-09-15T08:33:53.781Z,100972.72
2022-09-15T08:36:21.407Z,100970.09
2022-09-15T08:38:48.467Z,100978.25
2022-09-15T08:41:32.651Z,100984.59
2022-09-15T08:44:37.395Z,100981.34
2022-09-15T08:47:13.994Z,100987.69
2022-09-15T08:49:52.547Z,100988.50
2022-09-15T08:52:30.788Z,100991.41
2022-09-15T08:55:00.687Z,100988.53
2022-09-15T08:57:27.956Z,100996.91
2022-09-15T08:59:55.072Z,100995.03
2022-09-15T09:02:46.260Z,100991.16
2022-09-15T09:05:36.890Z,100994.94
2022-09-15T09:08:41.836Z,100996.53
2022-09-15T09:11:41.213Z,101001.03
2022-09-15T09:14:37.148Z,100995.84
2022-09-15T09:17:47.073Z,100994.59
2022-09-15T09:20:45.388Z,100999.75
2022-09-15T09:23:19.922Z,100998.41
2022-09-15T09:25:48.580Z,100992.78
2022-09-15T09:28:30.765Z,101003.75
2022-09-15T09:31:07.077Z,101004.81
2022-09-15T09:33:47.765Z,100998.72
2022-09-15T09:36:23.368Z,100997.44
2022-09-15T09:38:51.268Z,100998.72
2022-09-15T09:41:25.232Z,101003.03
2022-09-15T09:43:54.708Z,101000.91
2022-09-15T09:46:22.757Z,100996.28
2022-09-15T09:49:03.639Z,101000.56
2022-09-15T09:51:40.184Z,101004.94
2022-09-15T09:54:15.276Z,101004.59
2022-09-15T09:56:44.477Z,101009.09
2022-09-15T09:59:42.897Z,101006.47
2022-09-15T10:02:21.781Z,101016.34
2022-09-15T10:04:55.142Z,101019.81
2022-09-15T10:07:26.297Z,101016.66
2022-09-15T10:09:57.335Z,101014.44
2022-09-15T10:12:30.731Z,101014.84
2022-09-15T10:15:02.704Z,101009.31
2022-09-15T10:17:43.489Z,101008.81
2022-09-15T10:20:35.429Z,101008.44
2022-09-15T10:23:03.994Z,101005.16
2022-09-15T10:25:57.663Z,100999.53
2022-09-15T10:28:26.085Z,100989.94
2022-09-15T10:31:14.017Z,100990.09
2022-09-15T10:33:44.888Z,100992.94
2022-09-15T10:36:22.813Z,100989.97
2022-09-15T10:39:10.331Z,100984.72
2022-09-15T10:42:02.548Z,100987.50
2022-09-15T10:45:10.898Z,100975.50
2022-09-15T10:47:57.687Z,100972.00
2022-09-15T10:50:36.248Z,100966.88
2022-09-15T10:54:07.724Z,100970.72
2022-09-15T10:56:42.872Z,100969.22
2022-09-15T10:59:29.491Z,100965.09
2022-09-15T11:02:29.825Z,100966.16
2022-09-15T11:05:23.018Z,100972.78
2022-09-15T11:08:08.519Z,100970.16
2022-09-15T11:10:57.240Z,100971.75
2022-09-15T11:14:08.821Z,100977.81
2022-09-15T11:16:55.337Z,100960.78
2022-09-15T11:19:53.661Z,100969.00
2022-09-15T11:22:32.495Z,100967.91
2022-09-15T11:25:14.457Z,100958.13
2022-09-15T11:27:53.983Z,100956.09
2022-09-15T11:30:29.905Z,100953.16
2022-09-15T11:33:09.178Z,100962.06
2022-09-15T11:35:54.428Z,100956.84
2022-09-15T11:38:53.848Z,100954.38
2022-09-15T11:41:40.704Z,100969.31
2022-09-15T11:44:36.416Z,100957.78
2022-09-15T11:47:30.643Z,100969.69
2022-09-15T11:50:18.529Z,100977.78
2022-09-15T11:53:16.661Z,100972.16
2022-09-15T11:56:05.482Z,100969.38
2022-09-15T11:59:01.459Z,100974.19
2022-09-15T12:01:41.835Z,100967.00
2022-09-15T12:04:17.184Z,100970.31
2022-09-15T12:07:02.482Z,100959.19
2022-09-15T12:09:29.454Z,100949.63
2022-09-15T12:12:06.172Z,100958.19
2022-09-15T12:14:40.815Z,100952.28
2022-09-15T12:17:11.972Z,100960.00
2022-09-15T12:19:55.943Z,100943.91
2022-09-15T12:22:41.318Z,100948.03
2022-09-15T12:25:28.791Z,100946.47
2022-09-15T12:28:50.944Z,100955.50
2022-09-15T12:31:28.214Z,100966.94
2022-09-15T12:34:06.177Z,100967.13
2022-09-15T12:36:44.008Z,100957.66
2022-09-15T12:39:36.684Z,100966.88
2022-09-15T12:42:26.624Z,100968.22
2022-09-15T12:44:56.783Z,100977.16
2022-09-15T12:47:41.872Z,100979.81
2022-09-15T12:50:34.328Z,100987.91
2022-09-15T12:53:15.106Z,100989.41
2022-09-15T12:55:58.082Z,100997.91
2022-09-15T12:58:46.289Z,101004.59
2022-09-15T13:01:19.621Z,101006.75
2022-09-15T13:03:47.384Z,101014.03
2022-09-15T13:06:20.774Z,101007.78
2022-09-15T13:09:05.674Z,101011.66
2022-09-15T13:11:41.985Z,101004.56
2022-09-15T13:14:27.883Z,101006.69
2022-09-15T13:17:16.975Z,101007.13
2022-09-15T13:19:51.527Z,101009.69
2022-09-15T13:22:31.286Z,101008.47
2022-09-15T13:25:15.608Z,101007.97
2022-09-15T13:27:53.637Z,101011.44
2022-09-15T13:30:47.719Z,101008.09
2022-09-15T13:40:17.637Z,100998.94
2022-09-15T13:43:03.073Z,100994.72
2022-09-15T13:45:50.509Z,101002.38
2022-09-15T13:48:50.451Z,100998.56
2022-09-15T13:51:26.975Z,100991.34
2022-09-15T13:54:02.359Z,100990.25
2022-09-15T13:56:35.514Z,100989.69
2022-09-15T13:59:13.524Z,100999.25
2022-09-15T14:01:43.059Z,100980.34
2022-09-15T14:04:22.452Z,100986.81
2022-09-15T14:06:54.996Z,100984.84
2022-09-15T14:09:28.502Z,100996.75
2022-09-15T14:12:01.670Z,101004.16
2022-09-15T14:14:31.340Z,101012.31
2022-09-15T14:16:58.348Z,101023.41
2022-09-15T14:19:37.991Z,101021.03
2022-09-15T14:22:31.380Z,101007.56
2022-09-15T14:25:04.332Z,101014.06
2022-09-15T14:27:35.129Z,101022.91
2022-09-15T14:30:06.306Z,101020.25
2022-09-15T14:32:39.779Z,101022.91
2022-09-15T14:35:09.711Z,101019.50
2022-09-15T14:37:36.707Z,101016.03
2022-09-15T14:40:20.638Z,101018.56
2022-09-15T14:42:55.300Z,101018.91
2022-09-15T14:45:56.676Z,101019.22
2022-09-15T14:48:26.779Z,101020.22
2022-09-15T14:51:01.573Z,101016.38
2022-09-15T14:53:35.283Z,101021.13
2022-09-15T14:56:27.444Z,101020.28
2022-09-15T14:59:04.302Z,101015.34
2022-09-15T15:01:55.910Z,101017.69
2022-09-15T15:04:36.717Z,101016.09
2022-09-15T15:07:23.285Z,101017.78
2022-09-15T15:09:58.298Z,101010.63
2022-09-15T15:12:34.189Z,101013.28
2022-09-15T15:15:01.964Z,101016.28
2022-09-15T15:17:45.228Z,101012.97
2022-09-15T15:20:22.645Z,101013.81
2022-09-15T15:23:12.393Z,101013.22
2022-09-15T15:25:39.932Z,101003.13
2022-09-15T15:28:07.527Z,101012.56
2022-09-15T15:30:45.042Z,101007.69
2022-09-15T15:33:27.657Z,101011.56
2022-09-15T15:36:08.051Z,101017.38
2022-09-15T15:38:54.723Z,101016.81
2022-09-15T15:41:23.436Z,101018.47
2022-09-15T15:44:08.744Z,101020.09
2022-09-15T15:47:02.708Z,101025.66
2022-09-15T15:49:32.707Z,101031.34
2022-09-15T15:52:01.588Z,101035.09
2022-09-15T15:54:29.270Z,101044.19
2022-09-15T15:57:19.759Z,101050.13
2022-09-15T15:59:47.255Z,101047.97
2022-09-15T16:02:14.181Z,101047.91
2022-09-15T16:04:41.128Z,101041.31
2022-09-15T16:07:17.882Z,101048.31
2022-09-15T16:09:46.753Z,101045.34
2022-09-15T16:12:14.524Z,101060.53
2022-09-15T16:14:41.484Z,101064.97
2022-09-15T16:17:08.420Z,101052.28
2022-09-15T16:19:35.272Z,101045.34
2022-09-15T16:22:03.039Z,101049.97
2022-09-15T16:24:29.968Z,101038.88
2022-09-15T16:26:57.116Z,101045.19
2022-09-15T16:29:28.102Z,101043.06
2022-09-15T16:31:55.213Z,101043.72
2022-09-15T16:34:22.499Z,101056.56
2022-09-15T16:36:49.380Z,101046.69
2022-09-15T16:39:16.222Z,101053.94
2022-09-15T16:41:43.188Z,101052.28
2022-09-15T16:44:20.243Z,101057.03
2022-09-15T16:46:47.159Z,101054.06
2022-09-15T16:49:14.362Z,101055.13
2022-09-15T16:51:41.468Z,101053.81
2022-09-15T16:54:17.796Z,101058.81
2022-09-15T16:56:46.077Z,101054.84
2022-09-15T16:59:13.244Z,101053.84
2022-09-15T17:01:40.892Z,101047.31
2022-09-15T17:04:16.453Z,101055.69
2022-09-15T17:06:43.788Z,101048.22
2022-09-15T17:09:10.716Z,101044.94
2022-09-15T17:11:37.871Z,101038.00
2022-09-15T17:14:05.144Z,101042.94
2022-09-15T17:16:32.096Z,101037.44
2022-09-15T17:18:59.068Z,101054.44
2022-09-15T17:21:26.332Z,101048.50
2022-09-15T17:23:53.301Z,101054.91
2022-09-15T17:26:30.553Z,101050.78
2022-09-15T17:28:58.384Z,101056.56
2022-09-15T17:31:25.806Z,101055.16
2022-09-15T17:33:52.979Z,101059.53
2022-09-15T17:36:20.212Z,101057.88
2022-09-15T17:38:48.683Z,101060.59
2022-09-15T17:41:18.856Z,101058.81
2022-09-15T17:43:46.633Z,101055.66
2022-09-15T17:46:13.847Z,101058.84
2022-09-15T17:48:40.827Z,101055.19
2022-09-15T17:51:13.047Z,101062.78
2022-09-15T17:53:40.264Z,101066.22
2022-09-15T17:56:07.156Z,101066.09
2022-09-15T17:58:34.287Z,101065.53
2022-09-15T18:01:01.253Z,101068.59
2022-09-15T18:03:33.223Z,101067.66
2022-09-15T18:06:03.976Z,101065.31
2022-09-15T18:08:35.707Z,101074.25
2022-09-15T18:11:04.511Z,101075.22
2022-09-15T18:13:31.520Z,101080.03
2022-09-15T18:16:07.773Z,101080.41
2022-09-15T18:18:34.811Z,101080.50
2022-09-15T18:21:07.611Z,101080.97
2022-09-15T18:23:34.576Z,101113.06
2022-09-15T18:26:02.094Z,101107.25
2022-09-15T18:28:29.167Z,101124.78
2022-09-15T18:30:56.085Z,101124.53
2022-09-15T18:33:25.453Z,101120.50
2022-09-15T18:35:56.483Z,101131.09
2022-09-15T18:38:24.332Z,101130.81
2022-09-15T18:40:55.222Z,101123.44
2022-09-15T18:43:25.059Z,101125.81
2022-09-15T18:46:01.422Z,101132.75
2022-09-15T18:48:29.414Z,101145.00
2022-09-15T18:50:56.411Z,101146.97
2022-09-15T18:53:23.609Z,101132.66
2022-09-15T18:55:51.412Z,101134.75
2022-09-15T18:58:19.378Z,101126.53
2022-09-15T19:00:48.227Z,101124.84
2022-09-15T19:03:15.081Z,101114.38
2022-09-15T19:05:42.272Z,101116.19
2022-09-15T19:08:10.840Z,101119.50
2022-09-15T19:10:40.589Z,101128.22
2022-09-15T19:13:07.604Z,101132.94
2022-09-15T19:15:35.085Z,101137.31
2022-09-15T19:18:02.060Z,101132.28
2022-09-15T19:20:29.834Z,101134.38
2022-09-15T19:22:58.171Z,101134.00
2022-09-15T19:25:25.170Z,101134.69
2022-09-15T19:27:52.052Z,101127.16
2022-09-15T19:30:18.989Z,101125.38
2022-09-15T19:32:45.950Z,101128.97
2022-09-15T19:35:12.885Z,101125.06
2022-09-15T19:37:42.319Z,101137.97
2022-09-15T19:40:14.206Z,101135.22
2022-09-15T19:42:43.170Z,101137.16
2022-09-15T19:45:12.636Z,101137.38
2022-09-15T19:47:40.665Z,101141.75
2022-09-15T19:50:11.557Z,101142.59
2022-09-15T19:52:38.544Z,101142.84
2022-09-15T19:55:07.952Z,101145.16
2022-09-15T19:57:38.406Z,101144.50
2022-09-15T20:00:06.656Z,101152.66
2022-09-15T20:02:33.585Z,101157.91
2022-09-15T20:05:00.487Z,101157.56
2022-09-15T20:07:27.484Z,101154.75
2022-09-15T20:09:54.344Z,101150.84
2022-09-15T20:14:53.099Z,101150.84
2022-09-15T20:17:20.144Z,101147.09
2022-09-15T20:19:47.104Z,101137.50
2022-09-15T20:22:14.262Z,101147.09
2022-09-15T20:24:41.151Z,101143.13
2022-09-15T20:27:08.824Z,101145.22
2022-09-15T20:29:35.744Z,101146.72
2022-09-15T20:32:02.829Z,101146.31
2022-09-15T20:34:29.817Z,101152.94
2022-09-15T20:36:56.703Z,101146.09
2022-09-15T20:39:24.377Z,101144.63
2022-09-15T20:41:51.322Z,101152.28
2022-09-15T20:44:18.202Z,101143.94
2022-09-15T20:46:45.108Z,101152.13
2022-09-15T20:49:12.452Z,101147.69
2022-09-15T20:51:39.363Z,101144.91
2022-09-15T20:54:06.402Z,101147.53
2022-09-15T20:56:35.635Z,101149.19
2022-09-15T20:59:04.355Z,101152.00
2022-09-15T21:01:37.184Z,101155.03
2022-09-15T21:04:06.136Z,101155.59
2022-09-15T21:06:34.026Z,101152.84
2022-09-15T21:09:01.139Z,101152.66
2022-09-15T21:11:29.944Z,101150.63
2022-09-15T21:13:57.719Z,101154.81
2022-09-15T21:16:28.046Z,101151.59
2022-09-15T21:18:57.219Z,101151.19
2022-09-15T21:21:30.954Z,101161.66
2022-09-15T21:24:05.955Z,101153.78
2022-09-15T21:27:01.009Z,101152.94
2022-09-15T21:29:28.898Z,101155.31
2022-09-15T21:31:56.320Z,101167.38
2022-09-15T21:34:23.813Z,101160.34
2022-09-15T21:36:51.687Z,101166.19
2022-09-15T21:39:18.622Z,101172.38
2022-09-15T21:41:45.597Z,101174.28
2022-09-15T21:44:12.512Z,101164.09
2022-09-15T21:46:39.363Z,101164.09
2022-09-15T21:49:06.249Z,101169.50
2022-09-15T21:51:33.368Z,101165.56
2022-09-15T21:54:00.750Z,101173.34
2022-09-15T21:56:29.665Z,101167.97
2022-09-15T21:58:56.936Z,101160.72
2022-09-15T22:01:27.761Z,101174.84
2022-09-15T22:04:06.612Z,101175.88
2022-09-15T22:06:37.346Z,101171.53
2022-09-15T22:09:08.457Z,101181.06
2022-09-15T22:11:36.571Z,101178.16
2022-09-15T22:14:08.052Z,101176.72
2022-09-15T22:16:37.519Z,101165.72
2022-09-15T22:19:06.882Z,101174.63
2022-09-15T22:21:36.635Z,101169.03
2022-09-15T22:24:07.083Z,101164.06
2022-09-15T22:26:37.736Z,101161.56
2022-09-15T22:29:05.788Z,101153.47
2022-09-15T22:31:33.347Z,101148.69
2022-09-15T22:34:00.286Z,101137.25
2022-09-15T22:36:30.429Z,101142.88
2022-09-15T22:39:06.102Z,101144.75
2022-09-15T22:41:36.961Z,101149.53
2022-09-15T22:44:06.173Z,101142.47
2022-09-15T22:46:33.477Z,101142.25
2022-09-15T22:49:00.428Z,101135.44
2022-09-15T22:51:27.366Z,101142.94
2022-09-15T22:53:56.680Z,101143.34
2022-09-15T22:56:25.537Z,101147.28
2022-09-15T22:58:52.829Z,101149.16
2022-09-15T23:01:27.847Z,101142.53
2022-09-15T23:03:58.966Z,101139.03
2022-09-15T23:06:28.980Z,101142.97
2022-09-15T23:09:00.469Z,101146.72
2022-09-15T23:11:29.244Z,101143.88
2022-09-15T23:13:56.859Z,101143.47
2022-09-15T23:16:25.259Z,101145.94
2022-09-15T23:18:53.463Z,101154.66
2022-09-15T23:21:21.321Z,101159.44
2022-09-15T23:23:49.579Z,101165.00
2022-09-15T23:26:20.897Z,101161.03
2022-09-15T23:28:51.558Z,101152.53
2022-09-15T23:31:19.936Z,101155.63
2022-09-15T23:33:47.349Z,101161.63
2022-09-15T23:36:19.383Z,101151.66
2022-09-15T23:38:48.102Z,101147.94
2022-09-15T23:41:17.288Z,101150.00
2022-09-15T23:43:45.339Z,101148.75
2022-09-15T23:46:12.353Z,101149.59
2022-09-15T23:48:39.656Z,101148.34
2022-09-15T23:51:06.575Z,101149.16
2022-09-15T23:53:34.119Z,101147.28
2022-09-15T23:56:01.320Z,101146.66
2022-09-15T23:58:28.191Z,101147.03
